createdAt,value
2023-05-06T00:02:02.770Z,91.10
2023-05-06T00:04:32.027Z,91.20
2023-05-06T00:07:01.296Z,91.20
2023-05-06T00:09:30.460Z,91.20
2023-05-06T00:11:59.659Z,91.20
2023-05-06T00:14:28.993Z,91.20
2023-05-06T00:16:58.454Z,91.20
2023-05-06T00:19:28.342Z,91.20
2023-05-06T00:21:58.239Z,91.20
2023-05-06T00:24:27.462Z,91.20
2023-05-06T00:26:56.689Z,91.10
2023-05-06T00:29:25.966Z,91.20
2023-05-06T00:31:55.176Z,91.20
2023-05-06T00:34:24.381Z,91.20
2023-05-06T00:36:53.935Z,91.10
2023-05-06T00:39:23.413Z,91.30
2023-05-06T00:41:52.779Z,91.20
2023-05-06T00:44:21.995Z,91.00
2023-05-06T00:46:51.144Z,91.00
2023-05-06T00:49:21.065Z,91.00
2023-05-06T00:51:51.740Z,91.10
2023-05-06T00:54:21.444Z,91.00
2023-05-06T00:56:50.666Z,90.90
2023-05-06T00:59:20.841Z,91.00
2023-05-06T01:01:50.498Z,91.00
2023-05-06T01:04:19.710Z,91.00
2023-05-06T01:06:55.003Z,90.90
2023-05-06T01:09:55.623Z,90.80
2023-05-06T01:13:14.778Z,90.70
2023-05-06T01:15:48.623Z,90.70
2023-05-06T01:18:28.121Z,90.70
2023-05-06T01:20:58.439Z,90.70
2023-05-06T01:23:27.732Z,90.50
2023-05-06T01:25:57.214Z,90.40
2023-05-06T01:28:26.410Z,90.30
2023-05-06T01:31:06.603Z,90.20
2023-05-06T01:34:39.190Z,90.20
2023-05-06T01:37:23.806Z,90.00
2023-05-06T01:39:59.926Z,89.70
2023-05-06T01:42:32.216Z,89.60
2023-05-06T01:45:06.535Z,89.60
2023-05-06T01:47:38.907Z,89.30
2023-05-06T01:50:09.214Z,89.20
2023-05-06T01:52:38.582Z,88.50
2023-05-06T01:55:09.013Z,88.10
2023-05-06T01:57:38.601Z,87.50
2023-05-06T02:00:08.940Z,87.20
2023-05-06T02:02:38.444Z,87.00
2023-05-06T02:05:08.741Z,86.60
2023-05-06T02:07:38.174Z,86.70
2023-05-06T02:10:08.614Z,86.40
2023-05-06T02:12:37.828Z,86.30
2023-05-06T02:15:08.151Z,85.60
2023-05-06T02:17:39.705Z,86.20
2023-05-06T02:20:12.858Z,85.90
2023-05-06T02:22:42.156Z,86.10
2023-05-06T02:25:11.834Z,85.30
2023-05-06T02:27:41.316Z,84.90
2023-05-06T02:30:11.012Z,84.50
2023-05-06T02:32:40.270Z,84.40
2023-05-06T02:35:10.919Z,83.80
2023-05-06T02:37:40.788Z,83.80
2023-05-06T02:40:11.034Z,83.70
2023-05-06T02:42:40.367Z,82.50
2023-05-06T02:45:10.822Z,82.20
2023-05-06T02:47:40.380Z,82.10
2023-05-06T02:50:25.091Z,82.30
2023-05-06T02:52:54.353Z,82.40
2023-05-06T02:55:23.691Z,81.70
2023-05-06T02:57:52.897Z,81.40
2023-05-06T03:00:22.544Z,81.10
2023-05-06T03:02:51.811Z,81.00
2023-05-06T03:05:22.075Z,80.50
2023-05-06T03:07:51.425Z,81.10
2023-05-06T03:10:20.844Z,81.10
2023-05-06T03:12:50.196Z,81.10
2023-05-06T03:15:19.570Z,81.20
2023-05-06T03:17:49.409Z,80.30
2023-05-06T03:20:18.764Z,79.70
2023-05-06T03:22:48.042Z,79.30
2023-05-06T03:25:17.495Z,79.30
2023-05-06T03:27:46.759Z,78.90
2023-05-06T03:30:16.415Z,79.10
2023-05-06T03:32:45.971Z,79.10
2023-05-06T03:35:15.782Z,79.20
2023-05-06T03:37:45.077Z,78.50
2023-05-06T03:40:14.737Z,78.30
2023-05-06T03:42:47.171Z,78.50
2023-05-06T03:45:16.465Z,78.00
2023-05-06T03:47:45.849Z,77.80
2023-05-06T03:50:15.625Z,77.50
2023-05-06T03:52:45.299Z,77.40
2023-05-06T03:55:14.857Z,76.90
2023-05-06T03:57:44.185Z,76.80
2023-05-06T04:00:14.692Z,76.70
2023-05-06T04:02:44.469Z,76.20
2023-05-06T04:05:13.771Z,76.10
2023-05-06T04:07:43.011Z,75.80
2023-05-06T04:10:12.593Z,75.70
2023-05-06T04:12:42.105Z,75.50
2023-05-06T04:15:12.285Z,74.80
2023-05-06T04:17:41.963Z,74.60
2023-05-06T04:20:12.294Z,74.80
2023-05-06T04:22:41.790Z,74.10
2023-05-06T04:25:12.121Z,74.20
2023-05-06T04:27:41.685Z,73.20
2023-05-06T04:30:14.873Z,72.20
2023-05-06T04:32:44.440Z,71.60
2023-05-06T04:35:14.527Z,71.90
2023-05-06T04:37:44.510Z,71.30
2023-05-06T04:40:23.424Z,71.10
2023-05-06T04:42:53.090Z,71.20
2023-05-06T04:45:23.325Z,70.70
2023-05-06T04:47:53.510Z,70.80
2023-05-06T04:50:22.769Z,69.90
2023-05-06T04:52:52.291Z,70.10
2023-05-06T04:55:24.720Z,69.50
2023-05-06T04:57:53.927Z,69.70
2023-05-06T05:00:23.513Z,69.10
2023-05-06T05:02:52.917Z,67.80
2023-05-06T05:05:22.394Z,67.30
2023-05-06T05:07:51.673Z,67.20
2023-05-06T05:10:21.075Z,66.10
2023-05-06T05:12:50.385Z,65.80
2023-05-06T05:15:19.747Z,66.10
2023-05-06T05:17:49.873Z,65.20
2023-05-06T05:20:22.503Z,65.40
2023-05-06T05:22:51.864Z,65.30
2023-05-06T05:25:22.194Z,65.10
2023-05-06T05:27:51.471Z,64.80
2023-05-06T05:30:21.028Z,64.90
2023-05-06T05:32:50.607Z,64.90
2023-05-06T05:35:20.165Z,64.60
2023-05-06T05:37:52.541Z,65.00
2023-05-06T05:40:22.053Z,62.60
2023-05-06T05:42:56.391Z,61.20
2023-05-06T05:45:25.718Z,62.50
2023-05-06T05:47:55.694Z,62.80
2023-05-06T05:50:25.266Z,62.90
2023-05-06T05:52:54.645Z,62.90
2023-05-06T05:55:25.955Z,63.80
2023-05-06T05:57:55.985Z,64.00
2023-05-06T06:00:25.430Z,63.80
2023-05-06T06:02:54.669Z,64.50
2023-05-06T06:05:24.172Z,63.40
2023-05-06T06:07:53.484Z,63.10
2023-05-06T06:10:22.885Z,63.00
2023-05-06T06:12:52.272Z,62.70
2023-05-06T06:15:24.553Z,61.90
2023-05-06T06:18:10.316Z,62.10
2023-05-06T06:20:39.860Z,61.40
2023-05-06T06:23:09.429Z,61.10
2023-05-06T06:25:41.615Z,61.20
2023-05-06T06:28:11.148Z,60.80
2023-05-06T06:30:40.495Z,61.10
2023-05-06T06:33:09.797Z,60.90
2023-05-06T06:35:39.125Z,61.00
2023-05-06T06:38:08.674Z,60.40
2023-05-06T06:40:37.861Z,60.70
2023-05-06T06:45:54.610Z,59.80
2023-05-06T06:48:25.941Z,60.60
2023-05-06T06:50:55.144Z,59.80
2023-05-06T06:53:24.386Z,60.20
2023-05-06T06:55:53.662Z,59.90
2023-05-06T06:58:22.921Z,59.20
2023-05-06T07:00:52.130Z,59.70
2023-05-06T07:03:21.400Z,60.10
2023-05-06T07:05:52.036Z,59.60
2023-05-06T07:08:27.564Z,59.00
2023-05-06T07:10:57.548Z,59.40
2023-05-06T07:13:26.867Z,58.90
2023-05-06T07:15:56.124Z,58.80
2023-05-06T07:18:25.429Z,58.50
2023-05-06T07:20:54.617Z,59.00
2023-05-06T07:23:23.778Z,58.50
2023-05-06T07:25:52.909Z,58.40
2023-05-06T07:28:22.273Z,58.00
2023-05-06T07:30:52.456Z,58.20
2023-05-06T07:33:29.613Z,59.00
2023-05-06T07:35:58.833Z,58.70
2023-05-06T07:38:29.583Z,58.50
2023-05-06T07:40:58.792Z,58.50
2023-05-06T07:43:28.014Z,57.70
2023-05-06T07:46:03.577Z,57.90
2023-05-06T07:48:34.191Z,57.90
2023-05-06T07:51:05.351Z,57.90
2023-05-06T07:53:34.726Z,57.80
2023-05-06T07:56:04.914Z,57.10
2023-05-06T07:58:34.296Z,57.30
2023-05-06T08:01:04.576Z,57.10
2023-05-06T08:03:34.311Z,57.50
2023-05-06T08:06:03.930Z,57.90
2023-05-06T08:08:33.153Z,57.30
2023-05-06T08:11:02.415Z,57.60
2023-05-06T08:13:32.559Z,57.20
2023-05-06T08:16:03.279Z,57.50
2023-05-06T08:18:32.512Z,56.80
2023-05-06T08:21:01.722Z,56.80
2023-05-06T08:23:32.259Z,56.70
2023-05-06T08:26:01.636Z,56.60
2023-05-06T08:28:30.786Z,56.30
2023-05-06T08:30:59.911Z,56.70
2023-05-06T08:33:29.201Z,56.90
2023-05-06T08:36:00.243Z,56.80
2023-05-06T08:38:29.640Z,57.00
2023-05-06T08:41:04.383Z,57.10
2023-05-06T08:43:39.661Z,57.30
2023-05-06T08:46:09.467Z,56.80
2023-05-06T08:48:38.938Z,57.20
2023-05-06T08:51:09.382Z,57.10
2023-05-06T08:53:41.330Z,57.20
2023-05-06T08:56:13.412Z,57.70
2023-05-06T08:58:47.704Z,57.90
2023-05-06T09:01:17.443Z,57.70
2023-05-06T09:03:49.080Z,57.20
2023-05-06T09:06:18.350Z,57.50
2023-05-06T09:08:47.583Z,57.80
2023-05-06T09:11:32.817Z,58.00
2023-05-06T09:14:18.577Z,58.30
2023-05-06T09:16:54.683Z,58.20
2023-05-06T09:19:24.741Z,58.00
2023-05-06T09:21:54.312Z,58.00
2023-05-06T09:24:29.485Z,58.00
2023-05-06T09:27:06.799Z,57.90
2023-05-06T09:29:37.314Z,57.80
2023-05-06T09:32:12.322Z,57.90
2023-05-06T09:34:47.370Z,57.70
2023-05-06T09:37:18.845Z,58.10
2023-05-06T09:39:51.440Z,58.60
2023-05-06T09:42:21.726Z,58.60
2023-05-06T09:44:52.375Z,58.60
2023-05-06T09:47:27.314Z,58.60
2023-05-06T09:50:04.305Z,58.80
2023-05-06T09:52:34.057Z,58.80
2023-05-06T09:55:08.544Z,59.00
2023-05-06T09:57:39.801Z,59.20
2023-05-06T10:00:13.081Z,58.60
2023-05-06T10:02:49.089Z,58.90
2023-05-06T10:05:19.190Z,59.10
2023-05-06T10:07:54.401Z,58.80
2023-05-06T10:10:25.711Z,59.00
2023-05-06T10:12:55.803Z,59.70
2023-05-06T10:15:28.098Z,58.80
2023-05-06T10:17:58.599Z,58.90
2023-05-06T10:20:30.507Z,59.00
2023-05-06T10:23:12.122Z,59.60
2023-05-06T10:25:45.211Z,58.60
2023-05-06T10:28:24.952Z,59.30
2023-05-06T10:31:08.546Z,58.90
2023-05-06T10:33:38.614Z,59.10
2023-05-06T10:36:24.331Z,59.00
2023-05-06T10:39:04.427Z,59.20
2023-05-06T10:41:38.134Z,59.50
2023-05-06T10:44:08.017Z,59.90
2023-05-06T10:47:01.936Z,59.40
2023-05-06T10:49:31.232Z,59.90
2023-05-06T10:52:16.044Z,59.50
2023-05-06T10:54:53.331Z,59.80
2023-05-06T10:57:27.691Z,59.70
2023-05-06T10:59:57.011Z,60.10
2023-05-06T11:02:27.096Z,60.00
2023-05-06T11:05:03.083Z,59.80
2023-05-06T11:07:32.950Z,60.00
2023-05-06T11:10:09.045Z,60.30
2023-05-06T11:12:56.207Z,60.70
2023-05-06T11:15:41.575Z,60.50
2023-05-06T11:18:30.137Z,60.30
2023-05-06T11:21:05.290Z,60.60
2023-05-06T11:23:55.376Z,60.50
2023-05-06T11:26:26.876Z,60.60
2023-05-06T11:28:56.936Z,61.50
2023-05-06T11:31:26.958Z,61.40
2023-05-06T11:34:00.283Z,62.30
2023-05-06T11:36:30.334Z,62.30
2023-05-06T11:39:00.772Z,62.10
2023-05-06T11:41:31.097Z,62.10
2023-05-06T11:44:00.256Z,62.40
2023-05-06T11:46:34.464Z,62.60
2023-05-06T11:49:03.968Z,63.00
2023-05-06T11:51:33.552Z,63.00
2023-05-06T11:54:13.101Z,63.30
2023-05-06T11:56:53.057Z,64.00
2023-05-06T11:59:48.584Z,63.50
2023-05-06T12:02:21.332Z,63.70
2023-05-06T12:04:51.460Z,64.10
2023-05-06T12:07:20.799Z,64.30
2023-05-06T12:09:52.278Z,65.00
2023-05-06T12:12:25.342Z,64.70
2023-05-06T12:14:55.640Z,64.90
2023-05-06T12:17:25.438Z,65.20
2023-05-06T12:19:54.654Z,65.30
2023-05-06T12:22:28.537Z,65.30
2023-05-06T12:24:58.706Z,65.90
2023-05-06T12:27:35.959Z,65.90
2023-05-06T12:30:05.478Z,65.90
2023-05-06T12:32:35.255Z,66.00
2023-05-06T12:35:08.304Z,66.10
2023-05-06T12:37:39.354Z,66.60
2023-05-06T12:40:19.112Z,66.30
2023-05-06T12:42:58.634Z,66.80
2023-05-06T12:45:28.593Z,66.70
2023-05-06T12:48:10.560Z,67.00
2023-05-06T12:50:46.182Z,67.20
2023-05-06T12:53:15.415Z,67.30
2023-05-06T12:55:46.296Z,67.30
2023-05-06T12:58:20.320Z,67.10
2023-05-06T13:00:49.561Z,67.50
2023-05-06T13:03:20.351Z,67.60
2023-05-06T13:05:51.153Z,67.80
2023-05-06T13:08:20.393Z,67.70
2023-05-06T13:10:49.564Z,67.80
2023-05-06T13:13:18.729Z,67.90
2023-05-06T13:15:48.380Z,68.30
2023-05-06T13:18:17.535Z,68.30
2023-05-06T13:20:46.964Z,69.20
2023-05-06T13:23:16.230Z,68.60
2023-05-06T13:25:56.306Z,68.70
2023-05-06T13:28:34.920Z,68.70
2023-05-06T13:31:04.360Z,68.90
2023-05-06T13:33:34.404Z,69.10
2023-05-06T13:36:05.214Z,69.20
2023-05-06T13:38:35.016Z,69.10
2023-05-06T13:41:04.367Z,69.20
2023-05-06T13:43:33.665Z,69.40
2023-05-06T13:46:03.052Z,69.50
2023-05-06T13:48:32.511Z,69.50
2023-05-06T13:51:01.899Z,69.40
2023-05-06T13:53:31.177Z,69.50
2023-05-06T13:56:00.482Z,69.70
2023-05-06T13:58:29.772Z,69.90
2023-05-06T14:00:59.116Z,69.70
2023-05-06T14:03:28.533Z,70.00
2023-05-06T14:05:57.834Z,70.10
2023-05-06T14:08:27.199Z,70.10
2023-05-06T14:10:56.554Z,70.40
2023-05-06T14:13:25.949Z,70.60
2023-05-06T14:15:56.939Z,70.30
2023-05-06T14:18:27.944Z,70.50
2023-05-06T14:20:57.534Z,70.50
2023-05-06T14:23:27.062Z,70.60
2023-05-06T14:25:56.670Z,70.50
2023-05-06T14:28:25.902Z,70.60
2023-05-06T14:30:55.652Z,70.70
2023-05-06T14:33:24.991Z,70.60
2023-05-06T14:35:54.207Z,70.70
2023-05-06T14:38:23.803Z,70.80
2023-05-06T14:40:53.218Z,70.80
2023-05-06T14:43:22.557Z,70.80
2023-05-06T14:45:51.802Z,70.80
2023-05-06T14:48:21.268Z,70.80
2023-05-06T14:50:50.506Z,71.00
2023-05-06T14:53:19.788Z,71.10
2023-05-06T14:55:49.893Z,71.80
2023-05-06T14:58:19.136Z,71.00
2023-05-06T15:00:48.395Z,71.40
2023-05-06T15:03:17.623Z,71.10
2023-05-06T15:05:46.909Z,71.40
2023-05-06T15:08:16.250Z,71.50
2023-05-06T15:10:45.599Z,71.60
2023-05-06T15:13:14.830Z,71.70
2023-05-06T15:15:44.757Z,71.80
2023-05-06T15:18:14.273Z,71.90
2023-05-06T15:23:30.777Z,72.30
2023-05-06T15:26:16.625Z,72.50
2023-05-06T15:31:40.136Z,72.90
2023-05-06T15:34:11.663Z,73.20
2023-05-06T15:39:29.320Z,73.40
2023-05-06T15:42:00.866Z,73.70
2023-05-06T15:44:31.895Z,73.60
2023-05-06T15:47:01.285Z,74.00
2023-05-06T15:52:04.224Z,74.30
2023-05-06T15:54:34.797Z,74.20
2023-05-06T15:57:07.145Z,74.40
2023-05-06T15:59:36.690Z,74.30
2023-05-06T16:04:38.562Z,74.70
2023-05-06T16:07:08.597Z,74.90
2023-05-06T16:09:38.132Z,74.70
2023-05-06T16:12:07.823Z,74.80
2023-05-06T16:14:37.123Z,75.00
2023-05-06T16:17:06.437Z,75.20
2023-05-06T16:19:36.101Z,75.00
2023-05-06T16:22:05.555Z,75.20
2023-05-06T16:24:34.766Z,75.30
2023-05-06T16:27:03.950Z,75.10
2023-05-06T16:29:33.342Z,75.40
2023-05-06T16:32:02.984Z,75.50
2023-05-06T16:34:32.204Z,75.70
2023-05-06T16:37:01.855Z,75.60
2023-05-06T16:39:31.105Z,75.70
2023-05-06T16:42:00.296Z,75.60
2023-05-06T16:44:32.610Z,75.70
2023-05-06T16:49:49.081Z,75.80
2023-05-06T17:00:33.051Z,75.90
2023-05-06T17:05:49.441Z,76.10
2023-05-06T17:08:19.539Z,76.00
2023-05-06T17:10:49.082Z,76.20
2023-05-06T17:13:18.465Z,76.30
2023-05-06T17:15:47.649Z,76.40
2023-05-06T17:18:16.777Z,76.50
2023-05-06T17:20:55.144Z,76.50
2023-05-06T17:23:26.395Z,76.70
2023-05-06T17:25:58.242Z,77.00
2023-05-06T17:28:30.320Z,77.10
2023-05-06T17:30:59.512Z,77.30
2023-05-06T17:33:28.647Z,77.40
2023-05-06T17:35:57.784Z,77.50
2023-05-06T17:38:27.094Z,77.70
2023-05-06T17:40:56.308Z,77.90
2023-05-06T17:43:30.696Z,77.80
2023-05-06T17:46:00.407Z,78.00
2023-05-06T17:48:29.589Z,78.20
2023-05-06T17:56:29.812Z,78.50
2023-05-06T17:59:03.366Z,78.70
2023-05-06T18:01:33.205Z,79.00
2023-05-06T18:04:02.500Z,79.10
2023-05-06T18:06:32.097Z,79.20
2023-05-06T18:09:07.835Z,79.20
2023-05-06T18:11:38.511Z,79.20
2023-05-06T18:14:19.086Z,79.20
2023-05-06T18:19:42.913Z,79.30
2023-05-06T18:22:12.864Z,79.50
2023-05-06T18:24:42.029Z,79.60
2023-05-06T18:27:11.171Z,79.60
2023-05-06T18:29:40.878Z,79.30
2023-05-06T18:32:10.081Z,79.50
2023-05-06T18:34:39.325Z,79.50
2023-05-06T18:37:08.939Z,79.40
2023-05-06T18:39:43.769Z,80.10
2023-05-06T18:44:58.861Z,79.20
2023-05-06T18:47:28.672Z,79.40
2023-05-06T18:50:01.071Z,79.40
2023-05-06T18:52:30.333Z,80.00
2023-05-06T18:54:59.511Z,79.50
2023-05-06T18:57:29.255Z,79.30
2023-05-06T18:59:58.724Z,79.30
2023-05-06T19:02:28.128Z,79.30
2023-05-06T19:04:57.603Z,79.20
2023-05-06T19:07:27.097Z,79.20
2023-05-06T19:09:56.213Z,79.20
2023-05-06T19:12:25.359Z,79.20
2023-05-06T19:14:54.948Z,79.10
2023-05-06T19:17:24.555Z,79.30
2023-05-06T19:19:53.977Z,79.20
2023-05-06T19:22:23.225Z,79.30
2023-05-06T19:24:53.199Z,79.40
2023-05-06T19:27:22.436Z,79.30
2023-05-06T19:29:52.311Z,79.40
2023-05-06T19:32:24.160Z,79.50
2023-05-06T19:34:53.455Z,79.50
2023-05-06T19:37:22.909Z,79.50
2023-05-06T19:39:52.032Z,79.60
2023-05-06T19:42:21.232Z,79.60
2023-05-06T19:44:50.792Z,79.70
2023-05-06T19:47:19.942Z,79.60
2023-05-06T19:49:49.772Z,79.80
2023-05-06T19:52:34.866Z,79.70
2023-05-06T19:55:16.577Z,79.90
2023-05-06T20:00:30.149Z,80.00
2023-05-06T20:03:01.848Z,80.00
2023-05-06T20:05:32.385Z,80.10
2023-05-06T20:08:01.708Z,80.30
2023-05-06T20:10:31.830Z,80.40
2023-05-06T20:13:01.027Z,80.30
2023-05-06T20:15:30.896Z,80.50
2023-05-06T20:18:00.140Z,80.50
2023-05-06T20:20:35.036Z,80.60
2023-05-06T20:23:04.963Z,80.70
2023-05-06T20:28:21.798Z,80.90
2023-05-06T20:30:52.344Z,80.90
2023-05-06T20:33:21.594Z,80.90
2023-05-06T20:36:08.964Z,81.00
2023-05-06T20:38:44.358Z,81.10
2023-05-06T20:41:14.446Z,81.10
2023-05-06T20:46:41.496Z,81.20
2023-05-06T20:49:10.839Z,81.00
2023-05-06T20:51:40.153Z,81.10
2023-05-06T20:54:09.524Z,81.20
2023-05-06T20:56:38.809Z,81.30
2023-05-06T20:59:08.082Z,81.30
2023-05-06T21:01:37.497Z,81.40
2023-05-06T21:04:07.296Z,81.40
2023-05-06T21:06:36.510Z,82.10
2023-05-06T21:09:05.888Z,81.60
2023-05-06T21:11:35.216Z,81.60
2023-05-06T21:14:04.430Z,81.70
2023-05-06T21:16:33.672Z,81.70
2023-05-06T21:19:02.930Z,82.00
2023-05-06T21:21:33.451Z,82.00
2023-05-06T21:24:03.130Z,81.90
2023-05-06T21:26:34.202Z,82.10
2023-05-06T21:29:03.502Z,82.10
2023-05-06T21:31:32.791Z,82.20
2023-05-06T21:34:02.264Z,82.30
2023-05-06T21:36:32.176Z,82.40
2023-05-06T21:39:15.917Z,82.10
2023-05-06T21:41:46.286Z,82.50
2023-05-06T21:44:21.723Z,82.70
2023-05-06T21:46:51.299Z,82.60
2023-05-06T21:49:22.891Z,82.40
2023-05-06T21:51:52.261Z,82.60
2023-05-06T21:54:22.030Z,82.40
2023-05-06T21:56:51.273Z,82.60
2023-05-06T21:59:20.705Z,82.60
2023-05-06T22:01:49.986Z,82.60
2023-05-06T22:04:21.008Z,82.80
2023-05-06T22:06:50.339Z,82.70
2023-05-06T22:09:21.336Z,82.80
2023-05-06T22:11:51.374Z,82.80
2023-05-06T22:17:10.319Z,82.70
2023-05-06T22:19:49.922Z,82.80
2023-05-06T22:22:19.621Z,82.80
2023-05-06T22:24:49.592Z,82.60
2023-05-06T22:27:18.828Z,82.70
2023-05-06T22:29:48.100Z,83.00
2023-05-06T22:32:17.393Z,82.90
2023-05-06T22:34:46.642Z,83.00
2023-05-06T22:37:16.412Z,82.90
2023-05-06T22:39:45.767Z,82.90
2023-05-06T22:42:15.124Z,82.90
2023-05-06T22:44:44.653Z,83.10
2023-05-06T22:47:13.909Z,83.20
2023-05-06T22:49:43.488Z,83.10
2023-05-06T22:52:14.116Z,83.00
2023-05-06T22:54:43.357Z,83.10
2023-05-06T22:57:12.741Z,83.10
2023-05-06T22:59:42.054Z,83.10
2023-05-06T23:02:11.304Z,83.10
2023-05-06T23:04:41.408Z,83.20
2023-05-06T23:07:10.626Z,83.20
2023-05-06T23:09:39.881Z,83.20
2023-05-06T23:12:09.262Z,83.20
2023-05-06T23:14:38.513Z,83.30
2023-05-06T23:17:08.179Z,83.30
2023-05-06T23:19:37.522Z,83.30
2023-05-06T23:22:06.792Z,83.30
2023-05-06T23:24:36.086Z,83.40
2023-05-06T23:27:05.495Z,83.50
2023-05-06T23:29:34.897Z,83.50
2023-05-06T23:32:04.454Z,83.30
2023-05-06T23:34:33.975Z,83.40
2023-05-06T23:42:30.211Z,83.70
2023-05-06T23:45:01.074Z,83.70
2023-05-06T23:47:30.341Z,83.50
2023-05-06T23:49:59.890Z,83.70
2023-05-06T23:52:29.236Z,83.70
2023-05-06T23:54:58.469Z,83.70
2023-05-06T23:57:27.682Z,83.70
2023-05-06T23:59:58.771Z,84.00
